Time;durP1;ratioP1;P1;durP2;ratioP2;P2;SDS_P1;SDS_P2;PMS_P1;PMS_P2;Temp;Humidity;BMP_temperature;BMP_pressure;BME280_temperature;BME280_humidity;BME280_pressure;Samples;Min_cycle;Max_cycle;Signal;HPM_P1;HPM_P2
2021/08/26 00:00:01;;;;;;;20.20;13.70;;;;;;;21.76;63.79;100081.10;117366;1186;21940;-67
2021/08/26 00:08:04;;;;;;;16.00;12.10;;;;;;;21.68;63.80;100075.38;117467;1185;21847;-66
2021/08/26 00:10:32;;;;;;;17.30;12.90;;;;;;;21.67;63.76;100068.27;117539;1182;21854;-66
2021/08/26 00:13:02;;;;;;;14.80;11.80;;;;;;;21.67;63.76;100066.15;117318;1182;23432;-67
2021/08/26 00:15:31;;;;;;;15.10;11.10;;;;;;;21.66;63.80;100062.61;117360;1186;21895;-69
2021/08/26 00:17:59;;;;;;;14.30;10.80;;;;;;;21.65;63.79;100064.81;117392;1185;23432;-67
2021/08/26 00:20:28;;;;;;;15.10;12.40;;;;;;;21.65;63.79;100067.32;117432;1186;21858;-66
2021/08/26 00:22:56;;;;;;;15.90;11.80;;;;;;;21.65;63.62;100070.36;117369;1189;23609;-68
2021/08/26 00:25:24;;;;;;;13.20;10.90;;;;;;;21.67;63.58;100072.90;117408;1182;21858;-67
2021/08/26 00:27:52;;;;;;;15.10;11.40;;;;;;;21.65;63.49;100071.24;117364;1186;24159;-68
2021/08/26 00:30:20;;;;;;;13.20;10.20;;;;;;;21.67;63.55;100071.70;117412;1186;21855;-68
2021/08/26 00:32:48;;;;;;;15.00;10.90;;;;;;;21.66;63.49;100069.44;117319;1185;21866;-69
2021/08/26 00:35:17;;;;;;;14.70;10.30;;;;;;;21.64;63.48;100069.58;117407;1185;21983;-66
2021/08/26 00:37:45;;;;;;;12.30;10.20;;;;;;;21.63;63.48;100068.92;117444;1182;23459;-67
2021/08/26 00:40:14;;;;;;;13.80;10.50;;;;;;;21.60;63.38;100067.61;117422;1185;21845;-67
2021/08/26 00:42:48;;;;;;;11.40;10.20;;;;;;;21.59;63.31;100058.78;117410;1184;21858;-66
2021/08/26 00:45:17;;;;;;;14.10;10.30;;;;;;;21.58;63.37;100050.45;117395;1181;22996;-69
2021/08/26 00:47:47;;;;;;;11.70;9.90;;;;;;;21.59;63.27;100043.96;117288;1185;21864;-68
2021/08/26 00:50:15;;;;;;;13.10;10.40;;;;;;;21.59;63.10;100038.23;117407;1185;21886;-68
2021/08/26 00:52:46;;;;;;;11.80;10.00;;;;;;;21.58;63.07;100034.20;117387;1182;21889;-67
2021/08/26 00:55:15;;;;;;;15.80;10.70;;;;;;;21.55;63.11;100034.57;117438;1185;23531;-68
2021/08/26 00:57:43;;;;;;;12.50;10.10;;;;;;;21.54;63.08;100035.89;117356;1182;21850;-68
2021/08/26 01:00:12;;;;;;;11.30;9.90;;;;;;;21.54;63.02;100036.77;117349;1180;22979;-67
2021/08/26 01:02:52;;;;;;;10.90;9.30;;;;;;;21.51;62.92;100038.38;117454;1185;22909;-67
2021/08/26 01:05:32;;;;;;;13.00;9.10;;;;;;;21.50;62.91;100034.17;117359;1182;21865;-68
2021/08/26 01:08:37;;;;;;;11.80;9.20;;;;;;;21.48;62.89;100032.13;117186;1186;24143;-67
2021/08/26 01:11:06;;;;;;;11.50;9.20;;;;;;;21.49;62.88;100031.92;117352;1185;21862;-67
2021/08/26 01:13:36;;;;;;;12.50;9.40;;;;;;;21.48;62.82;100033.96;117379;1183;22909;-67
2021/08/26 01:16:08;;;;;;;12.20;9.00;;;;;;;21.48;62.78;100033.76;117408;1182;23429;-67
2021/08/26 01:18:42;;;;;;;10.50;8.20;;;;;;;21.48;62.78;100032.70;117406;1185;23615;-67
2021/08/26 01:21:22;;;;;;;10.10;8.70;;;;;;;21.46;62.83;100025.84;117390;1184;24194;-67
2021/08/26 01:24:02;;;;;;;11.80;8.90;;;;;;;21.46;62.74;100019.46;117352;1185;21848;-70
2021/08/26 01:26:34;;;;;;;11.20;8.30;;;;;;;21.41;62.61;100016.73;117293;1185;21995;-68
2021/08/26 01:29:04;;;;;;;12.60;8.70;;;;;;;21.42;62.61;100019.15;117408;1185;21858;-64
2021/08/26 01:31:33;;;;;;;9.90;8.50;;;;;;;21.44;62.55;100019.05;117397;1182;21853;-68
2021/08/26 01:34:02;;;;;;;12.60;8.70;;;;;;;21.45;62.51;100021.11;117400;1182;23459;-68
2021/08/26 01:36:31;;;;;;;10.90;9.00;;;;;;;21.45;62.45;100021.61;117447;1184;22104;-68
2021/08/26 01:39:01;;;;;;;11.40;8.60;;;;;;;21.48;62.31;100018.97;117392;1182;21856;-68
2021/08/26 01:41:42;;;;;;;12.10;8.30;;;;;;;21.48;62.22;100014.14;117435;1185;23891;-68
2021/08/26 01:44:13;;;;;;;9.90;8.50;;;;;;;21.44;62.13;100011.92;117504;1183;21861;-69
2021/08/26 01:46:41;;;;;;;11.00;8.20;;;;;;;21.41;62.09;100010.45;117417;1186;22917;-68
2021/08/26 01:49:09;;;;;;;10.10;8.40;;;;;;;21.40;62.07;100006.82;117458;1184;21885;-67
2021/08/26 01:51:41;;;;;;;12.50;8.70;;;;;;;21.34;62.10;99999.46;117371;1184;21853;-68
2021/08/26 01:54:09;;;;;;;10.20;8.60;;;;;;;21.30;62.09;99995.44;117410;1182;21916;-69
2021/08/26 01:56:38;;;;;;;12.50;9.10;;;;;;;21.20;62.30;99992.90;117403;1186;21855;-68
2021/08/26 01:59:06;;;;;;;10.20;8.30;;;;;;;21.13;62.41;99989.05;117380;1183;21890;-68
2021/08/26 02:01:34;;;;;;;12.00;8.90;;;;;;;21.21;62.15;99995.80;117392;1185;21851;-68
2021/08/26 02:04:03;;;;;;;10.70;8.50;;;;;;;21.23;62.06;99999.59;117403;1184;22528;-67
2021/08/26 02:06:31;;;;;;;11.50;8.70;;;;;;;21.22;61.94;99995.26;117377;1182;23363;-67
2021/08/26 02:09:01;;;;;;;9.80;8.20;;;;;;;21.17;62.00;99994.83;117331;1186;21871;-67
2021/08/26 02:11:29;;;;;;;11.10;8.40;;;;;;;21.08;62.00;99985.92;117362;1185;21851;-68
2021/08/26 02:14:01;;;;;;;11.90;8.40;;;;;;;21.00;62.21;99979.27;117295;1183;21858;-68
2021/08/26 02:16:34;;;;;;;10.90;8.60;;;;;;;20.97;62.13;99976.12;117348;1183;21854;-67
2021/08/26 02:19:02;;;;;;;12.00;9.00;;;;;;;20.91;62.30;99973.76;117428;1185;21895;-68
2021/08/26 02:21:31;;;;;;;11.20;8.00;;;;;;;20.91;62.29;99976.27;117328;1186;21862;-67
2021/08/26 02:23:59;;;;;;;17.60;8.70;;;;;;;20.90;62.26;99976.14;117375;1185;22909;-68
2021/08/26 02:26:27;;;;;;;10.80;8.40;;;;;;;20.89;62.33;99979.40;117387;1185;21857;-67
2021/08/26 02:28:56;;;;;;;10.80;8.80;;;;;;;20.88;62.32;99982.52;117396;1186;22621;-68
2021/08/26 02:31:24;;;;;;;13.70;8.70;;;;;;;20.86;62.30;99983.92;117463;1188;21859;-67
2021/08/26 02:33:53;;;;;;;11.60;8.50;;;;;;;20.83;62.40;99986.23;117461;1186;23459;-68
2021/08/26 02:36:22;;;;;;;10.70;8.40;;;;;;;20.81;62.41;99980.99;117365;1186;21862;-67
2021/08/26 02:38:51;;;;;;;11.80;8.90;;;;;;;20.80;62.44;99981.39;117456;1186;23430;-67
2021/08/26 02:41:19;;;;;;;12.10;8.50;;;;;;;20.80;62.37;99985.34;117379;1186;21854;-67
2021/08/26 02:43:47;;;;;;;11.30;8.80;;;;;;;20.78;62.31;99987.75;117410;1185;21858;-67
2021/08/26 02:46:15;;;;;;;16.50;8.70;;;;;;;20.78;62.38;99984.91;117294;1185;21855;-68
2021/08/26 02:48:44;;;;;;;11.10;8.40;;;;;;;20.80;62.27;99980.89;117291;1186;22756;-66
2021/08/26 02:51:12;;;;;;;11.90;8.70;;;;;;;20.82;62.15;99978.44;117324;1186;22625;-67
2021/08/26 02:53:40;;;;;;;12.70;8.80;;;;;;;20.84;62.10;99981.02;117464;1185;21858;-66
2021/08/26 02:56:08;;;;;;;12.20;8.30;;;;;;;20.86;62.02;99982.48;117418;1186;21854;-66
2021/08/26 02:58:37;;;;;;;12.30;8.60;;;;;;;20.87;62.06;99981.70;117323;1185;21856;-66
2021/08/26 03:01:05;;;;;;;13.50;8.70;;;;;;;20.85;62.04;99988.09;117316;1185;22639;-67
2021/08/26 03:03:34;;;;;;;12.20;8.70;;;;;;;20.80;62.14;99991.75;117385;1185;21842;-66
2021/08/26 03:06:02;;;;;;;15.10;9.20;;;;;;;20.82;62.10;99989.33;117384;1185;21867;-69
2021/08/26 03:08:31;;;;;;;11.80;9.10;;;;;;;20.73;62.34;99993.06;117357;1186;21878;-66
2021/08/26 03:10:59;;;;;;;15.50;8.80;;;;;;;20.64;62.60;99996.23;117370;1187;21860;-66
2021/08/26 03:13:29;;;;;;;19.80;9.00;;;;;;;20.66;62.59;99995.05;117386;1185;21861;-66
2021/08/26 03:16:00;;;;;;;11.80;8.50;;;;;;;20.77;62.33;99994.95;117441;1186;21861;-65
2021/08/26 03:18:28;;;;;;;12.20;9.00;;;;;;;20.79;62.24;99995.04;117394;1182;21854;-65
2021/08/26 03:20:57;;;;;;;11.20;8.20;;;;;;;20.79;62.27;100000.02;117477;1182;21854;-65
2021/08/26 03:23:25;;;;;;;13.50;8.20;;;;;;;20.77;62.28;99995.47;117465;1186;22782;-65
2021/08/26 03:25:53;;;;;;;15.60;8.90;;;;;;;20.77;62.35;99991.92;117407;1186;21864;-66
2021/08/26 03:28:21;;;;;;;12.00;9.20;;;;;;;20.75;62.36;99992.73;117531;1183;21855;-66
2021/08/26 03:30:50;;;;;;;13.00;9.20;;;;;;;20.69;62.48;99990.27;117361;1186;21868;-65
2021/08/26 03:33:18;;;;;;;15.10;9.20;;;;;;;20.75;62.37;99992.02;117407;1185;23528;-65
2021/08/26 03:35:48;;;;;;;12.80;9.00;;;;;;;20.66;62.40;99993.45;117412;1185;21855;-67
2021/08/26 03:38:17;;;;;;;14.90;9.60;;;;;;;20.56;62.78;99993.16;117390;1185;21864;-67
2021/08/26 03:40:45;;;;;;;12.90;9.40;;;;;;;20.61;62.79;99997.89;117351;1186;21854;-67
2021/08/26 03:43:13;;;;;;;12.70;9.50;;;;;;;20.58;63.11;100005.17;117467;1185;21890;-67
2021/08/26 03:45:44;;;;;;;13.50;9.40;;;;;;;20.63;63.04;100003.63;117439;1186;22642;-67
2021/08/26 03:48:12;;;;;;;17.40;10.00;;;;;;;20.68;63.09;100006.15;117405;1185;22948;-67
2021/08/26 03:50:41;;;;;;;21.10;10.60;;;;;;;20.75;63.11;100016.13;117458;1185;21858;-66
2021/08/26 03:53:10;;;;;;;17.60;9.50;;;;;;;20.78;63.05;100018.45;117483;1186;21881;-67
2021/08/26 03:55:39;;;;;;;13.90;9.80;;;;;;;20.74;63.39;100022.27;117375;1183;21858;-67
2021/08/26 03:58:07;;;;;;;20.50;9.40;;;;;;;20.77;63.55;100021.70;117366;1186;21855;-67
2021/08/26 04:00:35;;;;;;;22.50;10.10;;;;;;;20.88;63.43;100023.73;117471;1186;21870;-66
2021/08/26 04:03:03;;;;;;;15.80;9.30;;;;;;;21.10;63.24;100027.94;117395;1182;23553;-68
2021/08/26 04:05:32;;;;;;;18.10;10.50;;;;;;;21.21;63.03;100022.20;117419;1186;23455;-68
2021/08/26 04:08:00;;;;;;;13.60;10.10;;;;;;;21.33;63.00;100016.31;117445;1184;21854;-66
2021/08/26 04:10:30;;;;;;;27.20;22.60;;;;;;;21.45;62.85;100010.54;117435;1188;21845;-66
2021/08/26 04:13:17;;;;;;;76.40;42.50;;;;;;;21.56;62.94;100012.56;117363;1186;21864;-67
2021/08/26 04:16:05;;;;;;;54.90;33.80;;;;;;;21.69;63.08;100008.32;117374;1185;21947;-67
2021/08/26 04:18:34;;;;;;;62.10;36.80;;;;;;;21.80;62.95;100009.41;117526;1185;21877;-67
2021/08/26 04:21:02;;;;;;;44.80;27.50;;;;;;;21.90;62.84;100006.27;117385;1184;21851;-67
2021/08/26 04:23:30;;;;;;;31.60;20.70;;;;;;;21.92;63.08;100000.62;117384;1186;21849;-68
2021/08/26 04:25:58;;;;;;;28.00;17.00;;;;;;;22.02;62.90;99997.13;117454;1182;21845;-66
2021/08/26 04:28:27;;;;;;;28.40;16.40;;;;;;;22.05;62.92;99995.52;117369;1182;23455;-66
2021/08/26 04:30:55;;;;;;;22.20;15.10;;;;;;;22.14;62.81;99995.09;117300;1186;21848;-67
2021/08/26 04:33:23;;;;;;;19.40;13.90;;;;;;;22.18;62.73;99995.02;117355;1186;21854;-65
2021/08/26 04:35:51;;;;;;;18.70;12.70;;;;;;;22.20;62.80;100002.69;117441;1176;21857;-66
2021/08/26 04:38:20;;;;;;;16.40;12.00;;;;;;;22.20;63.08;100000.90;117352;1184;23520;-66
2021/08/26 04:40:48;;;;;;;17.10;12.90;;;;;;;22.25;63.34;99995.57;117372;1186;21891;-66
2021/08/26 04:43:16;;;;;;;16.50;12.40;;;;;;;22.35;63.25;99998.11;117318;1185;21891;-66
2021/08/26 04:45:45;;;;;;;15.80;10.70;;;;;;;22.44;63.21;99997.21;117373;1185;21864;-66
2021/08/26 04:48:14;;;;;;;14.30;10.00;;;;;;;22.53;62.66;99999.48;117411;1183;21845;-66
2021/08/26 04:50:42;;;;;;;20.60;11.60;;;;;;;22.57;62.61;99997.41;117442;1182;21904;-66
2021/08/26 04:53:10;;;;;;;13.80;10.30;;;;;;;22.63;62.47;99994.85;117411;1185;21861;-66
2021/08/26 04:55:39;;;;;;;13.30;9.80;;;;;;;22.68;62.14;99990.53;117408;1186;21845;-69
2021/08/26 04:58:07;;;;;;;14.20;9.90;;;;;;;22.76;62.01;99991.31;117424;1186;21882;-66
2021/08/26 05:00:36;;;;;;;14.70;9.20;;;;;;;22.80;61.89;99988.66;117442;1185;21859;-66
2021/08/26 05:03:05;;;;;;;14.10;9.80;;;;;;;22.85;61.61;99981.88;117481;1186;21851;-66
2021/08/26 05:05:33;;;;;;;14.50;9.70;;;;;;;22.89;61.62;99978.95;117435;1183;21871;-66
2021/08/26 05:08:01;;;;;;;15.80;10.60;;;;;;;22.91;61.63;99975.59;117424;1185;21855;-67
2021/08/26 05:10:30;;;;;;;14.00;9.80;;;;;;;22.95;61.58;99972.92;117226;1186;22329;-66
2021/08/26 05:12:58;;;;;;;16.80;9.20;;;;;;;23.02;61.50;99969.39;117429;1182;21841;-65
2021/08/26 05:15:26;;;;;;;15.30;10.90;;;;;;;23.12;61.46;99967.98;117435;1182;21854;-66
2021/08/26 05:17:55;;;;;;;16.40;10.90;;;;;;;23.20;61.36;99973.52;117400;1185;22323;-66
2021/08/26 05:20:23;;;;;;;16.90;12.60;;;;;;;23.32;61.66;99972.70;117377;1183;21856;-68
2021/08/26 05:22:51;;;;;;;40.60;28.70;;;;;;;23.46;61.32;99970.23;117389;1182;21855;-67
2021/08/26 05:25:20;;;;;;;95.10;71.00;;;;;;;23.61;61.05;99969.91;117403;1185;21950;-67
2021/08/26 05:27:48;;;;;;;65.70;46.00;;;;;;;23.77;60.73;99967.78;117306;1186;21864;-67
2021/08/26 05:30:16;;;;;;;27.60;22.00;;;;;;;23.93;60.40;99962.70;117366;1183;21844;-67
2021/08/26 05:32:45;;;;;;;32.70;20.20;;;;;;;24.07;60.25;99955.73;117431;1186;21868;-68
2021/08/26 05:35:13;;;;;;;27.50;16.40;;;;;;;24.26;59.88;99953.96;117396;1185;21854;-67
2021/08/26 05:37:43;;;;;;;28.00;16.00;;;;;;;24.42;59.44;99956.75;117449;1185;22463;-68
2021/08/26 05:40:11;;;;;;;29.20;14.80;;;;;;;24.55;59.60;99957.34;117379;1186;22880;-68
2021/08/26 05:42:39;;;;;;;19.20;12.40;;;;;;;24.71;59.17;99954.81;117435;1185;21855;-69
2021/08/26 05:45:08;;;;;;;14.50;10.60;;;;;;;24.88;58.68;99947.06;117416;1185;21841;-68
2021/08/26 05:47:36;;;;;;;14.30;10.40;;;;;;;25.05;58.28;99942.31;117368;1186;23541;-69
2021/08/26 05:50:05;;;;;;;14.30;11.00;;;;;;;25.21;58.04;99940.31;117432;1185;21852;-73
2021/08/26 05:52:33;;;;;;;16.90;10.70;;;;;;;25.38;57.79;99940.73;117435;1185;21848;-69
2021/08/26 05:55:02;;;;;;;12.30;10.40;;;;;;;25.47;57.82;99937.38;117441;1183;21848;-68
2021/08/26 05:57:31;;;;;;;15.10;11.40;;;;;;;25.56;58.06;99938.45;117451;1182;21878;-69
2021/08/26 05:59:59;;;;;;;15.60;10.80;;;;;;;25.68;57.95;99937.60;117384;1186;22979;-69
2021/08/26 06:02:27;;;;;;;13.10;9.90;;;;;;;25.74;57.74;99939.13;117410;1182;21870;-68
2021/08/26 06:04:55;;;;;;;16.60;11.00;;;;;;;25.76;57.37;99937.31;117398;1182;24132;-69
2021/08/26 06:07:23;;;;;;;15.10;10.70;;;;;;;25.76;57.16;99936.73;117402;1182;21855;-68
2021/08/26 06:09:52;;;;;;;16.10;11.60;;;;;;;25.80;57.33;99937.00;117493;1185;21821;-68
2021/08/26 06:12:20;;;;;;;15.60;10.70;;;;;;;25.83;56.87;99946.59;117412;1183;21855;-69
2021/08/26 06:14:48;;;;;;;16.80;11.30;;;;;;;25.81;56.90;99951.80;117402;1186;21845;-67
2021/08/26 06:17:17;;;;;;;17.40;12.60;;;;;;;25.83;57.02;99956.98;117448;1186;21855;-68
2021/08/26 06:19:45;;;;;;;18.60;12.20;;;;;;;25.88;57.23;99951.09;117290;1182;22019;-68
2021/08/26 06:22:13;;;;;;;20.10;15.60;;;;;;;25.96;57.38;99951.48;118208;1183;23576;-69
2021/08/26 06:24:41;;;;;;;19.30;12.30;;;;;;;26.09;57.07;99948.20;117249;1186;22903;-67
2021/08/26 06:27:10;;;;;;;15.20;11.10;;;;;;;26.26;56.84;99943.27;117415;1186;23474;-68
2021/08/26 06:29:38;;;;;;;14.30;10.20;;;;;;;26.36;56.20;99946.34;117482;1183;23320;-68
2021/08/26 06:32:07;;;;;;;14.80;10.80;;;;;;;26.42;55.98;99953.73;117282;1182;22975;-69
2021/08/26 06:34:35;;;;;;;13.90;9.90;;;;;;;26.48;55.80;99958.48;117395;1176;21943;-68
2021/08/26 06:37:03;;;;;;;12.40;10.20;;;;;;;26.53;55.95;99961.80;117195;1183;21858;-67
2021/08/26 06:39:31;;;;;;;16.50;10.70;;;;;;;26.64;55.81;99958.14;117352;1186;21855;-68
2021/08/26 06:42:00;;;;;;;13.20;10.50;;;;;;;26.84;55.27;99960.29;117431;1186;22629;-67
2021/08/26 06:44:28;;;;;;;15.00;11.00;;;;;;;27.00;54.92;99962.11;117287;1185;21855;-68
2021/08/26 06:46:56;;;;;;;16.80;10.50;;;;;;;27.17;54.72;99957.02;117410;1179;21854;-69
2021/08/26 06:49:26;;;;;;;16.20;10.10;;;;;;;27.26;54.21;99952.81;117369;1185;21856;-69
2021/08/26 06:51:54;;;;;;;19.90;11.50;;;;;;;27.37;54.14;99953.98;117351;1182;22785;-69
2021/08/26 06:54:22;;;;;;;22.50;11.30;;;;;;;27.46;53.77;99954.41;117427;1186;21845;-67
2021/08/26 06:56:51;;;;;;;17.70;10.70;;;;;;;27.41;57.93;99953.80;117378;1186;21855;-67
2021/08/26 06:59:19;;;;;;;15.90;11.60;;;;;;;27.45;59.88;99949.68;117345;1183;21889;-67
2021/08/26 07:01:48;;;;;;;17.60;11.50;;;;;;;27.61;60.05;99945.92;117389;1184;23534;-71
2021/08/26 07:04:16;;;;;;;15.60;10.90;;;;;;;27.78;59.74;99949.75;117428;1182;21846;-71
2021/08/26 07:06:53;;;;;;;14.20;10.70;;;;;;;28.00;58.67;99951.58;117363;1183;21864;-73
2021/08/26 07:09:22;;;;;;;17.40;10.50;;;;;;;28.18;57.46;99949.61;117403;1183;21855;-69
2021/08/26 07:11:50;;;;;;;16.00;11.50;;;;;;;28.27;56.31;99944.90;117274;1185;21868;-68
2021/08/26 07:14:19;;;;;;;18.90;11.80;;;;;;;28.44;55.57;99945.46;117398;1182;23442;-66
2021/08/26 07:16:47;;;;;;;17.30;11.70;;;;;;;28.68;54.90;99948.45;117340;1182;21855;-66
2021/08/26 07:19:15;;;;;;;22.40;11.50;;;;;;;28.93;55.18;99942.89;117345;1185;23560;-69
2021/08/26 07:21:43;;;;;;;22.10;12.00;;;;;;;29.27;54.90;99934.95;117345;1186;21866;-66
2021/08/26 07:24:12;;;;;;;13.50;10.30;;;;;;;29.54;54.33;99933.00;117411;1183;22910;-67
2021/08/26 07:26:42;;;;;;;14.70;10.50;;;;;;;29.73;53.32;99934.92;117437;1186;21855;-73
2021/08/26 07:29:10;;;;;;;17.00;11.00;;;;;;;29.85;51.80;99940.89;117401;1183;21840;-70
2021/08/26 07:31:39;;;;;;;14.50;11.50;;;;;;;29.93;50.19;99938.33;117376;1185;21869;-68
2021/08/26 07:34:07;;;;;;;16.60;12.10;;;;;;;29.76;49.75;99945.30;117405;1186;22083;-68
2021/08/26 07:36:35;;;;;;;15.70;12.30;;;;;;;29.65;49.29;99950.51;117411;1185;21857;-65
2021/08/26 07:39:04;;;;;;;16.40;12.40;;;;;;;29.63;48.82;99945.44;117192;1183;21858;-67
2021/08/26 07:41:32;;;;;;;20.90;14.20;;;;;;;29.62;48.44;99946.09;117444;1186;23551;-66
2021/08/26 07:44:00;;;;;;;17.30;12.70;;;;;;;29.56;48.37;99948.48;117443;1183;23432;-66
2021/08/26 07:46:29;;;;;;;21.00;13.70;;;;;;;29.55;48.27;99948.41;117428;1186;21856;-67
2021/08/26 07:48:57;;;;;;;19.10;13.00;;;;;;;29.56;48.35;99948.72;117372;1179;21855;-64
2021/08/26 07:51:26;;;;;;;15.90;13.30;;;;;;;29.57;47.97;99953.16;117348;1186;21845;-66
2021/08/26 07:53:54;;;;;;;18.40;13.10;;;;;;;29.44;48.04;99951.81;117375;1186;21845;-71
2021/08/26 07:56:22;;;;;;;14.70;12.40;;;;;;;29.32;48.60;99950.16;117327;1185;21963;-70
2021/08/26 07:58:50;;;;;;;15.50;11.50;;;;;;;29.31;48.85;99952.23;117499;1185;21855;-70
2021/08/26 08:01:19;;;;;;;16.60;13.10;;;;;;;29.33;48.81;99957.48;117401;1186;21842;-70
2021/08/26 08:03:47;;;;;;;20.60;12.40;;;;;;;29.32;48.46;99955.94;117444;1183;23456;-71
2021/08/26 08:06:16;;;;;;;18.90;12.80;;;;;;;29.27;48.24;99953.52;117361;1185;21881;-69
2021/08/26 08:08:45;;;;;;;17.20;13.50;;;;;;;29.16;48.41;99954.20;117419;1186;21892;-69
2021/08/26 08:11:15;;;;;;;16.40;12.30;;;;;;;28.91;48.73;99954.25;117403;1185;21859;-70
2021/08/26 08:14:02;;;;;;;19.20;12.10;;;;;;;28.86;48.64;99955.49;117389;1182;24206;-70
2021/08/26 08:16:31;;;;;;;23.00;12.10;;;;;;;28.80;48.91;99959.47;117396;1184;23516;-69
2021/08/26 08:19:00;;;;;;;18.70;12.20;;;;;;;28.74;48.87;99957.89;117407;1182;22972;-69
2021/08/26 08:21:30;;;;;;;14.50;11.10;;;;;;;28.61;48.91;99956.15;117442;1182;22808;-67
2021/08/26 08:23:59;;;;;;;17.10;11.70;;;;;;;28.51;49.14;99956.00;117348;1183;22940;-68
2021/08/26 08:26:28;;;;;;;16.70;11.90;;;;;;;28.49;49.21;99953.89;117399;1185;22822;-69
2021/08/26 08:28:57;;;;;;;16.70;11.10;;;;;;;28.51;49.28;99951.52;117382;1180;22951;-69
2021/08/26 08:31:25;;;;;;;18.50;11.10;;;;;;;28.56;49.04;99948.85;117429;1186;23535;-68
2021/08/26 08:33:53;;;;;;;13.20;11.10;;;;;;;28.71;49.03;99954.01;117395;1183;24210;-71
2021/08/26 08:36:21;;;;;;;15.50;11.40;;;;;;;28.75;49.07;99959.89;117563;1185;21854;-67
2021/08/26 08:38:52;;;;;;;14.40;11.60;;;;;;;28.56;53.55;99960.27;117319;1186;24152;-69
2021/08/26 08:41:21;;;;;;;17.90;11.20;;;;;;;28.37;59.40;99965.31;117375;1179;23430;-68
2021/08/26 08:43:49;;;;;;;16.40;11.50;;;;;;;28.31;60.37;99966.00;117397;1185;24156;-68
2021/08/26 08:46:18;;;;;;;14.60;11.40;;;;;;;28.14;59.94;99969.02;117420;1179;22839;-68
2021/08/26 08:48:46;;;;;;;16.20;11.30;;;;;;;28.04;58.68;99978.42;117422;1186;22903;-68
2021/08/26 08:51:15;;;;;;;16.10;10.80;;;;;;;27.96;58.44;99982.92;117851;1184;24168;-67
2021/08/26 08:53:44;;;;;;;23.10;11.80;;;;;;;28.00;55.46;99987.08;117355;1186;23459;-66
2021/08/26 08:56:13;;;;;;;19.00;11.80;;;;;;;27.71;58.49;99991.34;117287;1185;23002;-67
2021/08/26 08:58:41;;;;;;;24.40;12.80;;;;;;;27.59;59.27;99995.24;117371;1182;23432;-67
2021/08/26 09:01:12;;;;;;;22.00;13.20;;;;;;;27.40;56.89;99995.35;117431;1182;23456;-68
2021/08/26 09:03:41;;;;;;;20.40;12.60;;;;;;;27.12;56.65;99996.73;117310;1186;21954;-69
2021/08/26 09:06:09;;;;;;;20.10;10.80;;;;;;;26.74;57.91;99993.48;118200;1184;23519;-68
2021/08/26 09:08:39;;;;;;;19.00;11.20;;;;;;;26.35;61.86;99987.95;117299;1186;22973;-69
2021/08/26 09:11:14;;;;;;;14.90;9.90;;;;;;;26.20;62.02;99980.30;117294;1185;21863;-69
2021/08/26 09:13:44;;;;;;;12.60;10.10;;;;;;;26.07;60.57;99985.09;117412;1185;22994;-70
2021/08/26 09:16:12;;;;;;;12.90;9.40;;;;;;;25.82;60.15;99985.52;117523;1184;22899;-69
2021/08/26 09:18:41;;;;;;;12.20;9.50;;;;;;;25.64;59.93;99986.63;117422;1184;21855;-69
2021/08/26 09:21:13;;;;;;;12.70;10.00;;;;;;;25.59;59.93;99986.90;117439;1185;22137;-68
2021/08/26 09:23:51;;;;;;;14.00;9.50;;;;;;;25.60;60.43;99986.73;117381;1182;22814;-68
2021/08/26 09:26:20;;;;;;;11.00;9.50;;;;;;;25.73;60.34;99986.42;117401;1182;21845;-69
2021/08/26 09:28:49;;;;;;;14.80;11.90;;;;;;;25.83;60.17;99985.98;117350;1183;22385;-68
2021/08/26 09:31:19;;;;;;;13.30;11.10;;;;;;;25.88;60.17;99984.13;117470;1182;24155;-65
2021/08/26 09:34:06;;;;;;;12.40;10.80;;;;;;;25.94;59.91;99982.73;117401;1185;23464;-69
2021/08/26 09:36:45;;;;;;;10.60;9.40;;;;;;;25.99;59.74;99979.13;117270;1186;21857;-66
2021/08/26 09:39:18;;;;;;;11.60;9.70;;;;;;;26.04;59.70;99977.84;117144;1182;23680;-66
2021/08/26 09:42:04;;;;;;;11.90;10.30;;;;;;;26.04;59.56;99976.87;117420;1181;21857;-69
2021/08/26 09:44:35;;;;;;;13.40;10.80;;;;;;;26.07;59.46;99975.04;117435;1186;21854;-69
2021/08/26 09:47:05;;;;;;;11.90;10.20;;;;;;;26.08;59.49;99977.43;118670;1182;23464;-65
2021/08/26 09:49:37;;;;;;;;;;;;;;;26.07;59.57;99974.61;118164;1182;21845;-65
2021/08/26 09:52:10;;;;;;;13.10;10.40;;;;;;;26.04;59.54;99976.73;117369;1183;21859;-65
2021/08/26 09:54:46;;;;;;;14.50;11.20;;;;;;;26.02;59.39;99975.66;119042;1183;21858;-69
2021/08/26 09:57:24;;;;;;;14.00;12.60;;;;;;;26.01;59.75;99971.91;117403;1187;23621;-69
2021/08/26 09:59:59;;;;;;;13.20;11.90;;;;;;;26.00;59.94;99969.32;117307;1182;21857;-69
2021/08/26 10:02:29;;;;;;;13.80;11.40;;;;;;;26.00;60.17;99967.52;119378;1183;23432;-68
2021/08/26 10:04:58;;;;;;;12.50;11.20;;;;;;;26.03;60.16;99965.86;117447;1184;21859;-68
2021/08/26 10:07:27;;;;;;;15.50;12.00;;;;;;;26.06;60.35;99960.51;117496;1182;21843;-66
2021/08/26 10:09:56;;;;;;;14.80;13.00;;;;;;;26.12;60.34;99958.74;117441;1182;22320;-69
2021/08/26 10:12:24;;;;;;;16.90;13.40;;;;;;;26.18;60.40;99959.35;117170;1188;22096;-69
2021/08/26 10:14:52;;;;;;;14.50;12.80;;;;;;;26.23;60.60;99958.41;117469;1183;22320;-70
2021/08/26 10:17:21;;;;;;;17.70;13.50;;;;;;;26.30;60.79;99957.14;117373;1186;21881;-69
2021/08/26 10:19:50;;;;;;;15.30;12.70;;;;;;;26.38;61.01;99951.23;117442;1183;21858;-69
2021/08/26 10:22:18;;;;;;;13.30;11.90;;;;;;;26.51;61.16;99945.23;117456;1185;23538;-68
2021/08/26 10:24:46;;;;;;;12.20;10.90;;;;;;;26.62;60.73;99947.02;117375;1185;22057;-66
2021/08/26 10:27:17;;;;;;;14.40;9.90;;;;;;;26.72;59.69;99947.02;117331;1182;21848;-71
2021/08/26 10:29:45;;;;;;;;;;;;;;;26.78;58.88;99946.91;117439;1185;22898;-67
2021/08/26 10:32:16;;;;;;;10.20;9.10;;;;;;;26.80;59.14;99948.54;117414;1186;22105;-72
2021/08/26 10:35:08;;;;;;;10.90;9.20;;;;;;;26.86;59.10;99957.01;117411;1181;21866;-72
2021/08/26 10:37:51;;;;;;;9.10;8.00;;;;;;;26.90;58.33;99960.27;117474;1182;22648;-67
2021/08/26 10:40:28;;;;;;;9.80;7.80;;;;;;;26.84;56.91;99959.15;117378;1186;21860;-68
2021/08/26 10:42:57;;;;;;;15.80;8.50;;;;;;;26.72;56.79;99953.39;117384;1186;23437;-75
2021/08/26 10:45:28;;;;;;;9.70;8.30;;;;;;;26.64;57.17;99947.02;117522;1186;21987;-75
2021/08/26 10:47:56;;;;;;;10.00;8.80;;;;;;;26.62;57.39;99944.28;117441;1182;23451;-68
2021/08/26 10:50:29;;;;;;;12.00;8.60;;;;;;;26.60;57.44;99938.89;117446;1186;23537;-77
2021/08/26 10:52:58;;;;;;;11.30;9.10;;;;;;;26.58;56.59;99933.69;117442;1185;21858;-76
2021/08/26 10:55:40;;;;;;;10.90;9.60;;;;;;;26.63;57.34;99940.08;117434;1186;23656;-68
2021/08/26 10:58:21;;;;;;;11.70;9.00;;;;;;;26.74;57.44;99942.00;117305;1185;21888;-76
2021/08/26 11:00:53;;;;;;;;;;;;;;;26.84;57.05;99936.09;117428;1186;21839;-76
2021/08/26 11:03:46;;;;;;;9.00;8.10;;;;;;;26.92;56.07;99930.61;117441;1183;21855;-69
2021/08/26 11:06:18;;;;;;;9.30;8.30;;;;;;;26.93;55.79;99928.65;117410;1186;23551;-74
2021/08/26 11:08:47;;;;;;;11.90;8.90;;;;;;;26.98;56.21;99925.55;117389;1183;21861;-73
2021/08/26 11:11:45;;;;;;;11.80;8.90;;;;;;;27.09;56.49;99925.80;117420;1186;21970;-67
2021/08/26 11:14:22;;;;;;;10.10;8.60;;;;;;;27.10;55.87;99921.59;117423;1186;21845;-67
2021/08/26 11:16:53;;;;;;;11.10;8.80;;;;;;;27.10;55.58;99923.94;117325;1183;21858;-75
2021/08/26 11:19:24;;;;;;;11.40;9.70;;;;;;;27.13;55.74;99922.45;117479;1182;21865;-68
2021/08/26 11:21:57;;;;;;;10.10;8.10;;;;;;;27.13;56.15;99920.43;117426;1186;21858;-68
2021/08/26 11:24:27;;;;;;;11.00;8.60;;;;;;;27.16;55.54;99917.87;117418;1186;21888;-72
2021/08/26 11:26:59;;;;;;;8.90;7.80;;;;;;;27.14;54.87;99915.86;117429;1182;23560;-71
2021/08/26 11:29:34;;;;;;;9.70;8.10;;;;;;;27.09;54.75;99915.23;117410;1186;21908;-66